Latest Weather Observations for Charleville

IDQ60801

Issued at 9:32 am EST Monday 27 February 2017 (issued every 30 minutes, with the page automatically refreshed every 10 minutes)

About weather observations | Map of weather stations | Latest weather observations for QLD | Other Formats
Station Details ID: 044021 Name: CHARLEVILLE AERO Lat: -26.41 Lon: 146.26 Height: 301.6 m
Data from the previous 72 hours. | See also: Recent months at Charleville
Date/Time
EST
Temp
°C
App
Temp
°C
Dew
Point
°C
Rel
Hum
%
Delta-T
°C
Wind Press
QNH
hPa
Press
MSL
hPa
Rain since
9am
mm
Dir  Spd
km/h
Gust
km/h
Spd
kts
Gust
kts
27/09:00am 26.5 24.8 14.6 48 7.2 NNE 17 22 9 12 1016.4 1014.4 0.6
27/08:30am 25.6 23.5 14.7 51 6.6 NNE 19 28 10 15 1016.3 1014.3 0.6
27/08:00am 24.1 21.6 14.2 54 5.9 NNE 20 32 11 17 1016.2 1014.2 0.6
27/07:30am 22.8 20.9 14.1 58 5.2 NE 17 22 9 12 1016.0 1014.0 0.6
27/07:00am 21.6 21.3 14.5 64 4.2 ENE 9 13 5 7 1015.9 1013.9 0.6
27/06:30am 20.8 20.5 14.5 67 3.7 ENE 9 11 5 6 1015.5 1013.5 0.6
27/06:00am 20.9 20.3 14.5 67 3.8 NE 11 11 6 6 1015.5 1013.5 0.6
27/05:30am 21.3 20.7 14.5 65 4.0 NE 11 15 6 8 1015.4 1013.4 0.6
27/05:00am 21.7 20.7 14.6 64 4.2 ENE 13 17 7 9 1015.2 1013.2 0.6
27/04:30am 21.8 21.1 14.2 62 4.5 ENE 11 13 6 7 1015.1 1013.1 0.6
27/04:00am 21.9 21.1 14.0 61 4.7 NE 11 17 6 9 1014.6 1012.5 0.6
27/03:30am 21.7 21.4 14.4 63 4.3 NE 9 13 5 7 1014.6 1012.5 0.6
27/03:00am 21.9 21.4 14.8 64 4.2 ENE 11 15 6 8 1014.7 1012.7 0.6
27/02:30am 22.1 21.3 15.0 64 4.3 ENE 13 19 7 10 1014.3 1012.3 0.6
27/02:00am 22.2 21.5 15.3 65 4.2 ESE 13 19 7 10 1014.6 1012.5 0.6
27/01:30am 22.2 20.9 14.8 63 4.4 ENE 15 19 8 10 1014.4 1012.4 0.6
27/01:00am 22.1 21.5 14.5 62 4.5 E 11 15 6 8 1014.7 1012.7 0.6
27/12:30am 22.3 22.5 14.7 62 4.5 ENE 7 11 4 6 1015.0 1013.0 0.6
27/12:00am 22.5 23.4 15.1 63 4.5 NE 4 9 2 5 1015.2 1013.2 0.6
 
Date/Time
EST
Temp
°C
App
Temp
°C
Dew
Point
°C
Rel
Hum
%
Delta-T
°C
Wind Press
QNH
hPa
Press
MSL
hPa
Rain since
9am
mm
Dir  Spd
km/h
Gust
km/h
Spd
kts
Gust
kts
26/11:30pm 22.6 22.4 14.7 61 4.7 N 9 13 5 7 1015.1 1013.1 0.6
26/11:00pm 22.4 20.3 14.8 62 4.6 NE 19 26 10 14 1014.1 1012.1 0.6
26/10:30pm 22.4 21.2 15.0 63 4.4 NE 15 17 8 9 1015.1 1013.1 0.6
26/10:00pm 22.4 21.7 15.5 65 4.2 NE 13 22 7 12 1015.3 1013.3 0.6
26/09:30pm 22.1 20.3 16.1 69 3.7 N 20 30 11 16 1014.7 1012.7 0.6
26/09:00pm 23.3 21.4 14.3 57 5.4 NNE 17 26 9 14 1015.2 1013.2 0.2
26/08:30pm 23.5 21.1 14.5 57 5.4 N 20 26 11 14 1014.6 1012.5 0.2
26/08:00pm 24.7 20.9 13.6 50 6.6 NNE 26 37 14 20 1013.9 1011.9 0.2
26/07:30pm 25.0 20.3 13.2 48 7.0 NE 30 48 16 26 1012.6 1010.6 0.2
26/07:25pm 25.1 20.4 13.3 48 7.0 NE 30 48 16 26 1012.3 1010.3 0.2
26/07:00pm 25.1 21.2 13.3 48 7.0 ENE 26 39 14 21 1011.5 1009.4 0.2
26/06:30pm 24.8 19.6 14.6 53 6.2 ENE 35 54 19 29 1011.1 1009.0 0.2
26/06:28pm 24.9 19.5 15.0 54 6.0 ENE 37 54 20 29 1011.2 1009.1 0.2
26/06:23pm 24.9 19.5 15.0 54 6.0 ENE 37 54 20 29 1011.2 1009.1 0.2
26/06:00pm 24.6 18.3 14.7 54 6.0 NNE 41 59 22 32 1011.1 1009.0 0.2
26/05:54pm 25.8 21.3 14.9 51 6.6 NE 32 56 17 30 1012.2 1010.2 0.2
26/05:30pm 27.4 23.0 14.1 44 8.0 ENE 30 39 16 21 1012.0 1010.0 0.2
26/05:00pm 30.7 26.5 11.1 30 11.5 SW 24 37 13 20 1011.1 1009.0 0.2
26/04:46pm 32.9 28.7 8.4 22 13.9 S 20 48 11 26 1010.2 1008.2 0.2
26/04:30pm 32.9 31.2 9.7 24 13.4 NE 9 17 5 9 1009.3 1007.3 0.2
26/04:00pm 32.3 30.5 14.4 33 11.1 SW 17 28 9 15 1009.1 1007.1 0.2
26/03:30pm 36.0 32.7 8.0 18 16.0 W 15 24 8 13 1008.5 1006.4 0.0
26/03:00pm 37.2 33.9 8.1 17 16.7 NNW 15 24 8 13 1008.6 1006.5 0.0
26/02:30pm 37.1 34.2 8.0 17 16.7 WNW 13 28 7 15 1009.5 1007.5 0.0
26/02:00pm 35.7 32.3 9.3 20 15.4 NW 17 28 9 15 1010.6 1008.6 0.0
26/01:30pm 36.6 35.0 11.4 22 15.2 NNW 11 28 6 15 1011.3 1009.2 0.0
26/01:00pm 35.1 31.2 12.1 25 13.9 NNW 24 33 13 18 1012.0 1010.0 0.0
26/12:30pm 34.4 30.3 11.5 25 13.7 NW 24 41 13 22 1012.4 1010.4 0.0
26/12:00pm 34.5 30.2 13.3 27 13.0 NNW 28 39 15 21 1012.7 1010.7 0.0
26/11:30am 33.6 29.6 13.1 29 12.5 NNW 26 33 14 18 1013.1 1011.1 0.0
26/11:00am 32.6 28.4 11.2 27 12.6 N 24 35 13 19 1013.5 1011.5 0.0
26/10:30am 32.0 28.4 13.2 31 11.4 N 24 32 13 17 1013.8 1011.8 0.0
26/10:00am 31.6 27.1 13.8 34 10.9 N 30 37 16 20 1014.2 1012.2 0.0
26/09:30am 30.2 27.0 14.3 38 9.7 NNE 24 32 13 17 1014.2 1012.2 0.0
26/09:00am 29.2 25.1 13.8 39 9.3 NNE 28 35 15 19 1014.3 1012.3 0.0
26/08:30am 27.9 23.6 13.1 40 8.8 NNE 28 37 15 20 1014.0 1012.0 0.0
26/08:00am 27.9 23.4 11.5 36 9.5 NE 26 33 14 18 1013.8 1011.8 0.0
26/07:30am 27.3 24.1 11.3 37 9.2 NE 19 28 10 15 1013.6 1011.6 0.0
26/07:00am 26.8 24.0 11.3 38 8.9 NE 17 26 9 14 1013.2 1011.2 0.0
26/06:30am 26.3 23.7 12.0 41 8.3 NE 17 24 9 13 1012.6 1010.6 0.0
26/06:00am 26.1 23.6 12.2 42 8.1 NE 17 20 9 11 1012.3 1010.3 0.0
26/05:30am 26.6 23.5 11.5 39 8.7 NE 19 30 10 16 1011.8 1009.8 0.0
26/05:00am 26.8 24.6 10.9 37 9.1 NE 13 17 7 9 1011.5 1009.4 0.0
26/04:30am 27.5 25.3 10.7 35 9.6 NNE 13 17 7 9 1011.4 1009.3 0.0
26/04:00am 28.2 25.5 10.4 33 10.2 NE 15 24 8 13 1011.2 1009.1 0.0
26/03:30am 28.0 25.3 10.2 33 10.1 NE 15 22 8 12 1010.9 1008.9 0.0
26/03:00am 28.0 26.0 10.2 33 10.1 NE 11 15 6 8 1010.9 1008.9 0.0
26/02:30am 28.5 26.0 9.7 31 10.6 E 13 17 7 9 1010.7 1008.7 0.0
26/02:00am 27.2 24.9 10.4 35 9.6 SE 13 17 7 9 1010.8 1008.8 0.0
26/01:30am 27.7 26.7 10.9 35 9.7 WNW 7 9 4 5 1010.8 1008.8 0.0
26/01:00am 28.7 26.8 10.4 32 10.5 NW 11 13 6 7 1010.8 1008.8 0.0
26/12:30am 29.5 28.4 10.6 31 10.9 ENE 7 9 4 5 1011.1 1009.0 0.0
26/12:00am 30.2 28.6 10.2 29 11.5 ENE 9 15 5 8 1011.2 1009.1 0.0
 
Date/Time
EST
Temp
°C
App
Temp
°C
Dew
Point
°C
Rel
Hum
%
Delta-T
°C
Wind Press
QNH
hPa
Press
MSL
hPa
Rain since
9am
mm
Dir  Spd
km/h
Gust
km/h
Spd
kts
Gust
kts
25/11:30pm 31.0 27.9 10.4 28 11.9 NE 17 24 9 13 1011.2 1009.1 0.0
25/11:00pm 29.7 27.9 10.8 31 11.0 WNW 11 17 6 9 1011.8 1009.8 0.0
25/10:30pm 31.1 28.2 8.2 24 12.8 ESE 13 17 7 9 1011.5 1009.4 0.0
25/10:00pm 32.6 28.9 8.1 22 13.8 NE 17 22 9 12 1011.2 1009.1 0.0
25/09:30pm 30.1 29.0 10.6 30 11.3 N 7 11 4 6 1010.9 1008.9 0.0
25/09:00pm 29.3 28.9 8.4 27 11.6 CALM 0 0 0 0 1010.7 1008.7 0.0
25/08:30pm 29.5 28.9 7.4 25 12.1 CALM 0 0 0 0 1010.7 1008.7 0.0
25/08:00pm 30.4 29.8 7.6 24 12.6 CALM 0 0 0 0 1010.5 1008.5 0.0
25/07:30pm 31.6 31.0 7.3 22 13.4 CALM 0 0 0 0 1010.3 1008.3 0.0
25/07:00pm 33.4 31.5 6.6 19 14.8 ENE 6 7 3 4 1010.1 1008.1 0.0
25/06:30pm 35.7 34.4 6.0 16 16.4 E 2 7 1 4 1010.0 1008.0 0.0
25/06:00pm 36.9 33.9 6.0 15 17.2 ENE 11 13 6 7 1009.8 1007.8 0.0
25/05:30pm 36.6 31.5 5.8 15 17.0 SE 22 30 12 16 1009.9 1007.9 0.0
25/05:00pm 37.4 33.9 5.4 14 17.7 ENE 13 22 7 12 1009.7 1007.7 0.0
25/04:30pm 37.1 34.9 5.2 14 17.5 NW 6 9 3 5 1009.9 1007.9 0.0
25/04:00pm 37.3 35.5 5.3 14 17.7 E 4 11 2 6 1010.1 1008.1 0.0
25/03:30pm 38.4 35.1 6.2 14 18.1 ENE 13 19 7 10 1010.3 1008.3 0.0
25/03:00pm 36.9 34.1 5.0 14 17.5 SE 9 13 5 7 1010.8 1008.8 0.0
25/02:30pm 36.7 34.1 5.9 15 17.1 SW 9 15 5 8 1011.3 1009.2 0.0
25/02:00pm 38.2 34.4 6.0 14 18.0 ESE 15 24 8 13 1011.7 1009.7 0.0
25/01:30pm 37.6 34.5 5.6 14 17.7 SW 11 19 6 10 1012.3 1010.3 0.0
25/01:00pm 37.4 33.7 6.4 15 17.4 NE 15 26 8 14 1012.8 1010.8 0.0
25/12:30pm 37.1 34.1 6.2 15 17.2 E 11 20 6 11 1013.3 1011.3 0.0
25/12:00pm 36.6 33.9 5.8 15 17.0 N 9 15 5 8 1013.8 1011.8 0.0
25/11:30am 35.9 33.9 7.0 17 16.2 NW 7 13 4 7 1014.3 1012.3 0.0
25/11:00am 35.8 33.0 7.0 17 16.2 N 11 19 6 10 1014.9 1012.9 0.0
25/10:30am 34.5 32.6 10.4 23 14.2 N 11 17 6 9 1015.4 1013.4 0.0
25/10:00am 32.8 30.7 9.6 24 13.4 N 11 17 6 9 1015.6 1013.6 0.0
25/09:30am 31.8 30.5 9.9 26 12.6 N 7 13 4 7 1015.7 1013.7 0.0
25/09:00am 31.3 29.0 10.6 28 12.0 NNE 13 17 7 9 1015.7 1013.7 0.0
25/08:30am 29.1 27.1 10.3 31 10.8 N 11 15 6 8 1015.6 1013.6 0.0
25/08:00am 26.6 24.3 9.0 33 9.7 NNE 11 17 6 9 1015.5 1013.5 0.0
25/07:30am 25.8 22.5 7.9 32 9.7 NNE 15 20 8 11 1015.2 1013.2 0.0
25/07:00am 23.6 23.5 9.6 41 7.7 CALM 0 6 0 3 1015.0 1013.0 0.0
25/06:30am 21.0 21.0 9.9 49 6.1 CALM 0 0 0 0 1014.6 1012.5 0.0
25/06:00am 21.1 21.1 9.7 48 6.2 CALM 0 4 0 2 1014.1 1012.1 0.0
25/05:30am 22.5 20.6 9.0 42 7.3 NNE 9 9 5 5 1013.8 1011.8 0.0
25/05:00am 23.6 21.6 8.8 39 8.0 NNE 9 11 5 6 1013.5 1011.5 0.0
25/04:30am 24.0 22.4 8.8 38 8.3 NNE 7 11 4 6 1013.4 1011.4 0.0
25/04:00am 24.5 22.5 8.5 36 8.7 NE 9 11 5 6 1013.2 1011.2 0.0
25/03:30am 24.8 22.3 8.3 35 8.9 NE 11 13 6 7 1013.0 1011.0 0.0
25/03:00am 24.8 22.4 8.7 36 8.8 NNE 11 13 6 7 1013.0 1011.0 0.0
25/02:30am 23.4 21.5 9.0 40 7.8 NNE 9 11 5 6 1013.2 1011.2 0.0
25/02:00am 23.4 21.9 9.0 40 7.8 NNE 7 9 4 5 1013.3 1011.3 0.0
25/01:30am 24.0 22.3 8.4 37 8.4 NNE 7 9 4 5 1013.4 1011.4 0.0
25/01:00am 25.1 23.3 8.1 34 9.2 NE 7 7 4 4 1013.8 1011.8 0.0
25/12:30am 27.4 25.3 8.3 30 10.5 ENE 9 11 5 6 1014.0 1012.0 0.0
25/12:00am 27.7 25.9 8.1 29 10.8 ENE 7 9 4 5 1014.1 1012.1 0.0
 
Date/Time
EST
Temp
°C
App
Temp
°C
Dew
Point
°C
Rel
Hum
%
Delta-T
°C
Wind Press
QNH
hPa
Press
MSL
hPa
Rain since
9am
mm
Dir  Spd
km/h
Gust
km/h
Spd
kts
Gust
kts
24/11:30pm 28.2 25.9 7.4 27 11.3 NE 9 13 5 7 1014.2 1012.2 0.0
24/11:00pm 27.8 25.5 7.6 28 11.0 ENE 9 11 5 6 1014.3 1012.3 0.0
24/10:30pm 28.0 26.0 7.3 27 11.2 ESE 7 9 4 5 1014.4 1012.4 0.0
24/10:00pm 28.2 25.9 7.4 27 11.3 E 9 11 5 6 1014.4 1012.4 0.0
24/09:30pm 29.2 27.2 7.2 25 12.0 SE 7 9 4 5 1014.4 1012.4 0.0
24/09:00pm 30.0 27.5 6.6 23 12.7 SE 9 11 5 6 1014.4 1012.4 0.0
24/08:30pm 30.9 28.4 6.7 22 13.2 ESE 9 11 5 6 1014.2 1012.2 0.0
24/08:00pm 31.8 29.2 6.1 20 13.9 ESE 9 9 5 5 1014.0 1012.0 0.0
24/07:30pm 33.4 31.1 5.9 18 15.0 ESE 7 9 4 5 1013.8 1011.8 0.0
24/07:00pm 35.2 31.7 5.6 16 16.2 E 13 17 7 9 1013.5 1011.5 0.0
24/06:30pm 36.2 31.8 4.5 14 17.2 ESE 17 22 9 12 1013.3 1011.3 0.0
24/06:00pm 37.0 32.7 5.1 14 17.5 E 17 24 9 13 1013.1 1011.1 0.0
24/05:30pm 37.6 33.2 4.5 13 18.0 ESE 17 32 9 17 1013.0 1011.0 0.0
24/05:00pm 37.8 32.4 4.7 13 18.1 ESE 22 33 12 18 1013.0 1011.0 0.0
24/04:30pm 38.0 33.0 4.8 13 18.2 ESE 20 30 11 16 1013.3 1011.3 0.0
24/04:00pm 37.8 33.0 4.7 13 18.1 ENE 19 32 10 17 1013.4 1011.4 0.0
24/03:30pm 37.5 32.8 3.3 12 18.3 E 17 30 9 16 1013.7 1011.7 0.0
24/03:00pm 38.0 34.2 3.7 12 18.5 ESE 13 20 7 11 1013.9 1011.9 0.0
24/02:30pm 37.5 32.7 4.4 13 18.0 ESE 19 37 10 20 1014.6 1012.5 0.0
24/02:00pm 37.3 32.8 4.3 13 17.9 ESE 17 30 9 16 1015.1 1013.1 0.0
24/01:30pm 36.4 31.0 4.6 14 17.3 SSE 22 37 12 20 1015.5 1013.5 0.0
24/01:00pm 36.4 32.3 4.6 14 17.2 ESE 15 26 8 14 1016.0 1014.0 0.0
24/12:30pm 36.3 31.3 4.6 14 17.2 SE 20 35 11 19 1016.4 1014.4 0.0
24/12:00pm 35.0 31.7 6.3 17 15.9 ENE 13 28 7 15 1016.9 1014.9 0.0
24/11:30am 34.6 31.8 6.8 18 15.5 ENE 11 32 6 17 1017.4 1015.4 0.0
24/11:00am 34.6 32.3 9.1 21 14.7 WSW 11 17 6 9 1017.5 1015.5 0.0
24/10:30am 33.6 30.6 7.6 20 14.6 SE 13 22 7 12 1018.1 1016.1 0.0
24/10:00am 32.5 30.3 9.3 24 13.3 NE 11 19 6 10 1018.3 1016.3 0.0

Other Formats:

Comma delimited format used in spreadsheet applications
http://www.bom.gov.au/fwo/IDQ60801/IDQ60801.94510.axf

JavaScript Object Notation format (JSON) in row-major order
http://www.bom.gov.au/fwo/IDQ60801/IDQ60801.94510.json